KBAB/BAB METAR and TAF weather

Enter ICAO airport designator
Station Type Date Time Source
KBAB METAR 2022/11/30 23:55 UTC NOAA

KBAB 302355Z AUTO 15012KT 10SM CLR 13/01 A2989 RMK AO2 SLP125 T01330010 10144 20109 56018 $


Station Type Date Time Source
KBAB Decoded METAR 2022/11/30 23:55 UTC NOAA

Marysville, Beale Air Force Base, CA, United States (KBAB) 39-08N 121-26W
Nov 30, 2022 - 06:55 PM EST / 2022.11.30 2355 UTC
Wind: from the SSE (150 degrees) at 14 MPH (12 KT):0
Visibility: 10 mile(s):0
Sky conditions: clear
Temperature: 55.9 F (13.3 C)
Dew Point: 33.8 F (1.0 C)
Relative Humidity: 43%
Pressure (altimeter): 29.89 in. Hg (1012 hPa)
Pressure tendency: 0.05 inches (1.8 hPa) lower than three hours ago
ob: KBAB 302355Z AUTO 15012KT 10SM CLR 13/01 A2989 RMK AO2 SLP125 T01330010 10144 20109 56018
cycle: 0

Station Type Date Time Source
KBAB TAF 2022/11/30 19:07 UTC NOAA

TAF KBAB 301900Z 3019/0201 16009KT 9999 SCT150 QNH2992INS
BECMG 0101/0102 15009KT 9999 BKN050 620509 621404 QNH2991INS
BECMG 0106/0107 15010G20KT 9999 OVC030 620509 621404 QNH2985INS
BECMG 0110/0111 15015G30KT 8000 -RA OVC030 620509 621404 520005 QNH2978INS
TEMPO 0114/0118 4800 RA BKN015 OVC030 650505 621008
BECMG 0120/0121 16015G35KT 8000 -RA BKN015 OVC020 650409 651305 520005 QNH2985INS TX15/3022Z TN01/0115Z

Example: see airport list